createdAt,value
2023-02-03T00:01:36.330Z,101091.81
2023-02-03T00:04:02.712Z,101094.56
2023-02-03T00:06:29.168Z,101088.22
2023-02-03T00:08:55.603Z,101087.41
2023-02-03T00:11:22.011Z,101092.09
2023-02-03T00:13:48.320Z,101089.88
2023-02-03T00:16:14.675Z,101083.53
2023-02-03T00:18:41.015Z,101080.75
2023-02-03T00:21:07.399Z,101078.81
2023-02-03T00:23:33.756Z,101071.66
2023-02-03T00:26:00.161Z,101071.09
2023-02-03T00:28:28.521Z,101067.22
2023-02-03T00:30:54.876Z,101080.22
2023-02-03T00:33:21.203Z,101077.44
2023-02-03T00:35:47.570Z,101060.06
2023-02-03T00:38:14.007Z,101068.88
2023-02-03T00:40:40.326Z,101066.38
2023-02-03T00:43:06.638Z,101068.59
2023-02-03T00:45:32.983Z,101063.94
2023-02-03T00:47:59.358Z,101053.72
2023-02-03T00:50:25.940Z,101049.03
2023-02-03T00:52:52.458Z,101042.38
2023-02-03T00:55:18.797Z,101037.13
2023-02-03T00:57:45.181Z,101041.84
2023-02-03T01:00:11.592Z,101034.94
2023-02-03T01:02:38.015Z,101024.44
2023-02-03T01:05:04.346Z,101016.44
2023-02-03T01:07:30.672Z,101009.28
2023-02-03T01:09:56.995Z,101007.34
2023-02-03T01:12:23.308Z,100997.41
2023-02-03T01:14:49.605Z,100995.72
2023-02-03T01:17:15.917Z,100986.91
2023-02-03T01:19:42.219Z,100992.41
2023-02-03T01:22:08.563Z,100971.47
2023-02-03T01:24:34.869Z,100967.31
2023-02-03T01:27:01.206Z,100964.84
2023-02-03T01:29:27.523Z,100945.22
2023-02-03T01:31:53.990Z,100951.31
2023-02-03T01:34:20.732Z,100932.56
2023-02-03T01:36:47.084Z,100939.75
2023-02-03T01:39:13.464Z,100937.28
2023-02-03T01:41:39.783Z,100936.16
2023-02-03T01:44:06.255Z,100930.34
2023-02-03T01:46:32.611Z,100916.53
2023-02-03T01:48:58.945Z,100912.69
2023-02-03T01:51:25.283Z,100914.87
2023-02-03T01:53:51.624Z,100919.06
2023-02-03T01:56:17.945Z,100917.38
2023-02-03T01:58:44.268Z,100914.63
2023-02-03T02:01:10.644Z,100921.00
2023-02-03T02:03:36.987Z,100912.72
2023-02-03T02:06:03.312Z,100896.44
2023-02-03T02:08:29.637Z,100889.31
2023-02-03T02:10:55.961Z,100890.38
2023-02-03T02:13:22.364Z,100876.63
2023-02-03T02:15:48.749Z,100870.81
2023-02-03T02:18:15.076Z,100859.78
2023-02-03T02:20:41.406Z,100853.72
2023-02-03T02:23:07.739Z,100850.66
2023-02-03T02:25:34.053Z,100844.63
2023-02-03T02:28:00.452Z,100837.75
2023-02-03T02:30:27.182Z,100842.16
2023-02-03T02:32:53.713Z,100850.13
2023-02-03T02:35:20.050Z,100830.78
2023-02-03T02:37:46.383Z,100831.13
2023-02-03T02:40:12.711Z,100827.25
2023-02-03T02:42:39.036Z,100807.97
2023-02-03T02:45:05.355Z,100799.97
2023-02-03T02:47:31.719Z,100800.22
2023-02-03T02:49:58.029Z,100803.00
2023-02-03T02:52:24.362Z,100800.53
2023-02-03T02:54:50.688Z,100800.78
2023-02-03T02:57:17.000Z,100791.09
2023-02-03T02:59:43.346Z,100785.53
2023-02-03T03:02:09.685Z,100782.19
2023-02-03T03:04:36.134Z,100768.97
2023-02-03T03:07:02.981Z,100752.09
2023-02-03T03:09:29.797Z,100744.63
2023-02-03T03:11:56.104Z,100739.91
2023-02-03T03:14:22.455Z,100735.25
2023-02-03T03:16:48.853Z,100733.84
2023-02-03T03:19:15.188Z,100730.81
2023-02-03T03:21:41.525Z,100725.34
2023-02-03T03:24:07.858Z,100723.44
2023-02-03T03:26:34.299Z,100717.34
2023-02-03T03:29:00.618Z,100707.94
2023-02-03T03:31:27.150Z,100713.47
2023-02-03T03:33:53.547Z,100714.84
2023-02-03T03:36:19.901Z,100709.38
2023-02-03T03:38:46.263Z,100710.75
2023-02-03T03:41:12.575Z,100699.97
2023-02-03T03:43:39.161Z,100706.59
2023-02-03T03:46:05.487Z,100696.66
2023-02-03T03:48:31.813Z,100696.06
2023-02-03T03:50:58.161Z,100702.16
2023-02-03T03:53:24.518Z,100689.34
2023-02-03T03:55:50.828Z,100690.00
2023-02-03T03:58:17.142Z,100692.69
2023-02-03T04:00:43.455Z,100691.25
2023-02-03T04:03:09.837Z,100681.91
2023-02-03T04:05:36.186Z,100681.50
2023-02-03T04:08:03.878Z,100666.12
2023-02-03T04:10:30.207Z,100654.50
2023-02-03T04:12:56.513Z,100630.47
2023-02-03T04:15:22.910Z,100638.53
2023-02-03T04:17:49.409Z,100626.28
2023-02-03T04:20:15.796Z,100615.44
2023-02-03T04:22:42.138Z,100603.16
2023-02-03T04:25:08.475Z,100605.19
2023-02-03T04:27:34.807Z,100596.69
2023-02-03T04:30:01.151Z,100593.44
2023-02-03T04:32:27.541Z,100581.56
2023-02-03T04:34:53.866Z,100583.50
2023-02-03T04:37:21.221Z,100583.84
2023-02-03T04:39:47.564Z,100577.41
2023-02-03T04:42:13.878Z,100575.41
2023-02-03T04:44:40.210Z,100571.72
2023-02-03T04:47:06.808Z,100577.38
2023-02-03T04:49:33.173Z,100572.00
2023-02-03T04:51:59.555Z,100572.06
2023-02-03T04:54:25.855Z,100567.34
2023-02-03T04:56:52.189Z,100572.59
2023-02-03T04:59:18.514Z,100580.19
2023-02-03T05:01:44.835Z,100568.97
2023-02-03T05:04:11.143Z,100568.97
2023-02-03T05:06:37.496Z,100575.13
2023-02-03T05:09:03.824Z,100567.34
2023-02-03T05:11:30.246Z,100574.41
2023-02-03T05:13:56.581Z,100562.41
2023-02-03T05:16:23.134Z,100563.22
2023-02-03T05:18:49.489Z,100555.22
2023-02-03T05:21:15.828Z,100565.09
2023-02-03T05:23:42.149Z,100547.25
2023-02-03T05:26:08.473Z,100541.13
2023-02-03T05:28:34.835Z,100547.66
2023-02-03T05:31:01.550Z,100533.00
2023-02-03T05:33:27.928Z,100530.44
2023-02-03T05:35:54.239Z,100526.75
2023-02-03T05:38:20.586Z,100510.12
2023-02-03T05:41:05.824Z,100512.69
2023-02-03T05:43:32.131Z,100500.19
2023-02-03T05:45:58.515Z,100498.44
2023-02-03T05:48:24.855Z,100506.91
2023-02-03T05:50:51.178Z,100517.12
2023-02-03T05:53:17.493Z,100506.59
2023-02-03T05:55:43.848Z,100511.22
2023-02-03T05:58:10.181Z,100517.25
2023-02-03T06:00:36.523Z,100527.41
2023-02-03T06:03:02.897Z,100528.13
2023-02-03T06:05:29.239Z,100534.09
2023-02-03T06:07:55.575Z,100511.09
2023-02-03T06:10:21.927Z,100513.88
2023-02-03T06:12:48.241Z,100521.78
2023-02-03T06:15:14.546Z,100521.28
2023-02-03T06:17:40.969Z,100526.50
2023-02-03T06:20:07.325Z,100516.75
2023-02-03T06:22:33.644Z,100507.72
2023-02-03T06:24:59.978Z,100505.47
2023-02-03T06:27:26.290Z,100511.41
2023-02-03T06:29:52.610Z,100486.47
2023-02-03T06:32:18.925Z,100487.69
2023-02-03T06:34:45.271Z,100487.41
2023-02-03T06:37:11.607Z,100481.94
2023-02-03T06:39:37.948Z,100490.44
2023-02-03T06:42:04.307Z,100485.13
2023-02-03T06:44:30.636Z,100489.03
2023-02-03T06:46:58.802Z,100464.78
2023-02-03T06:49:25.114Z,100466.22
2023-02-03T06:51:52.552Z,100477.81
2023-02-03T06:54:18.906Z,100464.56
2023-02-03T06:56:45.216Z,100466.97
2023-02-03T06:59:11.530Z,100445.28
2023-02-03T07:01:37.944Z,100448.66
2023-02-03T07:04:04.480Z,100462.03
2023-02-03T07:06:33.890Z,100433.69
2023-02-03T07:09:01.815Z,100423.41
2023-02-03T07:11:28.305Z,100421.47
2023-02-03T07:13:54.672Z,100406.97
2023-02-03T07:16:21.063Z,100419.84
2023-02-03T07:18:48.186Z,100420.00
2023-02-03T07:21:14.650Z,100412.78
2023-02-03T07:23:40.969Z,100413.28
2023-02-03T07:26:07.287Z,100399.63
2023-02-03T07:28:33.595Z,100407.13
2023-02-03T07:31:01.092Z,100419.13
2023-02-03T07:33:27.743Z,100405.38
2023-02-03T07:35:54.098Z,100416.84
2023-02-03T07:38:20.439Z,100401.75
2023-02-03T07:40:46.777Z,100406.97
2023-02-03T07:43:13.109Z,100411.06
2023-02-03T07:45:39.452Z,100397.69
2023-02-03T07:48:05.769Z,100399.13
2023-02-03T07:50:33.467Z,100379.34
2023-02-03T07:52:59.854Z,100378.53
2023-02-03T07:55:26.201Z,100376.09
2023-02-03T07:57:52.585Z,100382.38
2023-02-03T08:00:18.916Z,100390.97
2023-02-03T08:02:45.265Z,100384.25
2023-02-03T08:05:11.701Z,100378.00
2023-02-03T08:07:38.092Z,100377.31
2023-02-03T08:10:04.398Z,100379.56
2023-02-03T08:12:30.721Z,100375.47
2023-02-03T08:14:57.055Z,100370.88
2023-02-03T08:17:23.435Z,100368.25
2023-02-03T08:19:49.759Z,100367.22
2023-02-03T08:22:16.193Z,100371.44
2023-02-03T08:24:45.757Z,100357.81
2023-02-03T08:27:12.138Z,100353.59
2023-02-03T08:29:38.472Z,100356.31
2023-02-03T08:32:06.053Z,100352.03
2023-02-03T08:34:34.244Z,100351.09
2023-02-03T08:37:00.582Z,100351.91
2023-02-03T08:39:27.045Z,100354.56
2023-02-03T08:41:53.372Z,100348.81
2023-02-03T08:44:20.036Z,100351.47
2023-02-03T08:46:46.358Z,100347.06
2023-02-03T08:49:12.719Z,100344.69
2023-02-03T08:51:39.140Z,100339.06
2023-02-03T08:54:05.547Z,100340.25
2023-02-03T08:56:31.957Z,100335.47
2023-02-03T08:58:58.253Z,100338.87
2023-02-03T09:01:24.624Z,100340.31
2023-02-03T09:03:50.972Z,100328.22
2023-02-03T09:06:17.322Z,100339.31
2023-02-03T09:08:43.878Z,100339.13
2023-02-03T09:11:10.216Z,100326.56
2023-02-03T09:13:36.821Z,100322.22
2023-02-03T09:16:03.172Z,100316.50
2023-02-03T09:18:29.644Z,100306.94
2023-02-03T09:20:55.956Z,100315.19
2023-02-03T09:23:22.360Z,100299.69
2023-02-03T09:25:49.615Z,100289.53
2023-02-03T09:28:16.047Z,100298.03
2023-02-03T09:30:42.435Z,100288.06
2023-02-03T09:33:08.850Z,100277.19
2023-02-03T09:35:35.168Z,100274.91
2023-02-03T09:38:01.505Z,100285.81
2023-02-03T09:40:28.557Z,100280.97
2023-02-03T09:42:55.121Z,100272.38
2023-02-03T09:45:21.468Z,100252.31
2023-02-03T09:47:54.134Z,100241.88
2023-02-03T09:50:20.931Z,100227.81
2023-02-03T09:52:47.675Z,100223.09
2023-02-03T09:55:14.014Z,100209.38
2023-02-03T09:57:40.361Z,100200.56
2023-02-03T10:00:06.677Z,100211.78
2023-02-03T10:02:33.117Z,100200.22
2023-02-03T10:04:59.450Z,100191.44
2023-02-03T10:07:25.779Z,100206.91
2023-02-03T10:09:52.097Z,100189.37
2023-02-03T10:12:18.464Z,100190.16
2023-02-03T10:14:44.803Z,100184.00
2023-02-03T10:17:11.189Z,100172.75
2023-02-03T10:19:37.557Z,100166.88
2023-02-03T10:22:03.901Z,100155.16
2023-02-03T10:24:30.236Z,100161.31
2023-02-03T10:26:56.570Z,100157.06
2023-02-03T10:29:23.013Z,100148.75
2023-02-03T10:31:49.813Z,100135.03
2023-02-03T10:34:16.260Z,100132.41
2023-02-03T10:36:42.658Z,100121.50
2023-02-03T10:39:08.958Z,100129.19
2023-02-03T10:41:35.294Z,100114.31
2023-02-03T10:44:01.678Z,100114.13
2023-02-03T10:46:28.208Z,100112.19
2023-02-03T10:48:54.649Z,100113.03
2023-02-03T10:51:21.033Z,100102.31
2023-02-03T10:53:47.399Z,100101.94
2023-02-03T10:56:13.740Z,100095.78
2023-02-03T10:58:40.081Z,100087.25
2023-02-03T11:01:06.588Z,100080.13
2023-02-03T11:03:33.060Z,100074.09
2023-02-03T11:05:59.416Z,100060.87
2023-02-03T11:08:25.740Z,100074.56
2023-02-03T11:10:52.066Z,100078.00
2023-02-03T11:13:19.393Z,100064.31
2023-02-03T11:15:45.905Z,100069.56
2023-02-03T11:18:12.246Z,100059.47
2023-02-03T11:20:38.584Z,100072.38
2023-02-03T11:23:04.905Z,100065.50
2023-02-03T11:25:31.244Z,100059.78
2023-02-03T11:27:57.622Z,100063.87
2023-02-03T11:30:24.318Z,100061.59
2023-02-03T11:32:50.634Z,100049.00
2023-02-03T11:35:16.959Z,100049.16
2023-02-03T11:37:43.362Z,100058.47
2023-02-03T11:40:12.827Z,100061.88
2023-02-03T11:42:39.148Z,100066.28
2023-02-03T11:45:05.474Z,100067.75
2023-02-03T11:47:31.832Z,100061.25
2023-02-03T11:49:58.151Z,100051.94
2023-02-03T11:52:24.489Z,100052.09
2023-02-03T11:54:50.825Z,100047.88
2023-02-03T11:57:17.197Z,100033.19
2023-02-03T11:59:43.557Z,100033.19
2023-02-03T12:02:10.250Z,100030.75
2023-02-03T12:04:36.702Z,100003.66
2023-02-03T12:07:03.047Z,99976.88
2023-02-03T12:09:29.375Z,99963.31
2023-02-03T12:11:55.690Z,99945.16
2023-02-03T12:14:22.018Z,99914.50
2023-02-03T12:19:20.373Z,99920.81
2023-02-03T12:21:47.585Z,99922.31
2023-02-03T12:24:13.961Z,99956.59
2023-02-03T12:26:40.312Z,99953.81
2023-02-03T12:29:06.625Z,99961.81
2023-02-03T12:31:33.006Z,99962.63
2023-02-03T12:33:59.851Z,99941.38
2023-02-03T12:36:26.207Z,99952.50
2023-02-03T12:38:52.583Z,99956.53
2023-02-03T12:41:18.920Z,99957.84
2023-02-03T12:43:49.347Z,99963.06
2023-02-03T12:46:15.769Z,99957.69
2023-02-03T12:48:42.170Z,99952.75
2023-02-03T12:51:08.518Z,99939.03
2023-02-03T12:53:34.906Z,99936.59
2023-02-03T12:56:02.950Z,99926.06
2023-02-03T12:58:29.248Z,99925.72
2023-02-03T13:00:55.622Z,99914.00
2023-02-03T13:03:21.947Z,99932.31
2023-02-03T13:05:48.377Z,99939.19
2023-02-03T13:08:14.716Z,99926.13
2023-02-03T13:10:41.982Z,99940.34
2023-02-03T13:13:09.303Z,99953.75
2023-02-03T13:15:35.630Z,99967.69
2023-02-03T13:18:01.928Z,99999.06
2023-02-03T13:20:31.288Z,100056.53
2023-02-03T13:22:57.824Z,100015.66
2023-02-03T13:25:24.149Z,100039.22
2023-02-03T13:27:50.537Z,100016.22
2023-02-03T13:30:16.916Z,100025.03
2023-02-03T13:32:43.254Z,100029.44
2023-02-03T13:35:09.595Z,100027.19
2023-02-03T13:37:35.921Z,100030.31
2023-02-03T13:40:02.445Z,100038.69
2023-02-03T13:42:28.808Z,100026.59
2023-02-03T13:44:55.151Z,100025.78
2023-02-03T13:47:21.479Z,100033.13
2023-02-03T13:49:48.450Z,100047.00
2023-02-03T13:52:16.017Z,100062.38
2023-02-03T13:54:42.432Z,100055.03
2023-02-03T13:57:08.752Z,100071.53
2023-02-03T13:59:35.155Z,100063.53
2023-02-03T14:02:01.482Z,100060.44
2023-02-03T14:04:27.854Z,100066.63
2023-02-03T14:06:54.237Z,100062.56
2023-02-03T14:09:20.617Z,100069.28
2023-02-03T14:11:47.041Z,100070.06
2023-02-03T14:14:13.391Z,100072.84
2023-02-03T14:16:39.876Z,100072.84
2023-02-03T14:19:06.244Z,100083.44
2023-02-03T14:21:32.594Z,100087.87
2023-02-03T14:23:59.123Z,100103.38
2023-02-03T14:26:25.536Z,100102.41
2023-02-03T14:28:53.843Z,100106.13
2023-02-03T14:31:20.685Z,100106.62
2023-02-03T14:33:47.101Z,100120.47
2023-02-03T14:36:13.412Z,100119.66
2023-02-03T14:38:40.100Z,100114.91
2023-02-03T14:41:06.457Z,100104.47
2023-02-03T14:43:32.899Z,100114.09
2023-02-03T14:45:59.353Z,100118.69
2023-02-03T14:48:25.852Z,100125.06
2023-02-03T14:50:52.356Z,100128.97
2023-02-03T14:53:18.662Z,100129.13
2023-02-03T14:55:45.423Z,100127.81
2023-02-03T14:58:11.738Z,100129.13
2023-02-03T15:00:38.227Z,100139.06
2023-02-03T15:03:04.590Z,100133.16
2023-02-03T15:05:31.104Z,100129.56
2023-02-03T15:07:57.540Z,100145.59
2023-02-03T15:10:23.860Z,100146.22
2023-02-03T15:12:50.240Z,100140.00
2023-02-03T15:15:16.619Z,100140.00
2023-02-03T15:17:43.009Z,100142.28
2023-02-03T15:20:09.331Z,100147.03
2023-02-03T15:22:35.676Z,100158.28
2023-02-03T15:25:05.087Z,100161.84
2023-02-03T15:27:31.415Z,100164.91
2023-02-03T15:29:59.271Z,100161.00
2023-02-03T15:32:27.976Z,100179.91
2023-02-03T15:34:55.315Z,100175.00
2023-02-03T15:37:21.661Z,100186.91
2023-02-03T15:39:48.002Z,100187.72
2023-02-03T15:42:16.251Z,100184.50
2023-02-03T15:44:42.597Z,100194.22
2023-02-03T15:47:08.969Z,100194.59
2023-02-03T15:49:35.357Z,100203.41
2023-02-03T15:52:01.700Z,100194.09
2023-02-03T15:54:30.605Z,100198.88
2023-02-03T15:56:57.674Z,100198.44
2023-02-03T15:59:24.042Z,100205.56
2023-02-03T16:01:50.416Z,100202.66
2023-02-03T16:04:16.781Z,100204.28
2023-02-03T16:06:45.139Z,100206.75
2023-02-03T16:09:11.519Z,100207.41
2023-02-03T16:11:37.879Z,100211.50
2023-02-03T16:14:04.213Z,100209.69
2023-02-03T16:16:30.712Z,100213.16
2023-02-03T16:18:57.190Z,100218.53
2023-02-03T16:21:23.535Z,100231.28
2023-02-03T16:23:49.863Z,100228.84
2023-02-03T16:26:17.178Z,100232.28
2023-02-03T16:29:02.439Z,100224.78
2023-02-03T16:31:47.332Z,100237.47
2023-02-03T16:34:32.595Z,100228.72
2023-02-03T16:37:17.686Z,100252.34
2023-02-03T16:40:04.278Z,100251.88
2023-02-03T16:42:49.360Z,100246.97
2023-02-03T16:45:34.705Z,100253.53
2023-02-03T16:48:19.848Z,100249.09
2023-02-03T16:50:58.979Z,100258.75
2023-02-03T16:53:25.767Z,100254.34
2023-02-03T16:55:52.111Z,100262.00
2023-02-03T16:58:18.435Z,100254.50
2023-02-03T17:00:44.931Z,100265.72
2023-02-03T17:03:11.330Z,100277.78
2023-02-03T17:05:38.011Z,100286.78
2023-02-03T17:08:04.339Z,100275.03
2023-02-03T17:10:30.654Z,100288.09
2023-02-03T17:12:57.027Z,100310.00
2023-02-03T17:15:23.336Z,100285.31
2023-02-03T17:17:49.680Z,100297.38
2023-02-03T17:20:15.989Z,100294.78
2023-02-03T17:22:42.305Z,100297.56
2023-02-03T17:25:08.619Z,100303.91
2023-02-03T17:27:34.947Z,100324.97
2023-02-03T17:30:01.464Z,100302.63
2023-02-03T17:32:27.997Z,100306.56
2023-02-03T17:34:54.320Z,100313.56
2023-02-03T17:37:20.687Z,100310.47
2023-02-03T17:53:28.957Z,100302.63
2023-02-03T17:55:55.261Z,100306.06
2023-02-03T17:58:21.742Z,100302.47
2023-02-03T18:00:48.095Z,100312.28
2023-02-03T18:03:14.467Z,100302.66
2023-02-03T18:05:40.829Z,100319.19
2023-02-03T18:08:16.104Z,100308.25
2023-02-03T18:10:43.047Z,100313.62
2023-02-03T18:13:09.686Z,100304.03
2023-02-03T18:15:37.949Z,100327.03
2023-02-03T18:18:04.285Z,100323.91
2023-02-03T18:20:30.826Z,100333.41
2023-02-03T18:22:57.244Z,100346.28
2023-02-03T18:25:23.550Z,100344.03
2023-02-03T18:27:49.879Z,100348.75
2023-02-03T18:30:18.372Z,100366.16
2023-02-03T18:32:44.739Z,100361.44
2023-02-03T18:35:17.228Z,100351.63
2023-02-03T18:37:43.621Z,100363.81
2023-02-03T18:40:09.990Z,100369.56
2023-02-03T18:42:36.354Z,100373.97
2023-02-03T18:45:06.085Z,100367.25
2023-02-03T18:47:32.500Z,100383.69
2023-02-03T18:49:58.824Z,100379.50
2023-02-03T18:52:25.140Z,100382.06
2023-02-03T18:54:51.882Z,100385.84
2023-02-03T18:57:18.181Z,100394.78
2023-02-03T18:59:44.807Z,100392.34
2023-02-03T19:02:11.277Z,100389.37
2023-02-03T19:04:37.628Z,100381.06
2023-02-03T19:07:03.971Z,100393.09
2023-02-03T19:09:30.336Z,100394.44
2023-02-03T19:11:59.874Z,100405.75
2023-02-03T19:14:26.266Z,100407.25
2023-02-03T19:16:53.191Z,100403.47
2023-02-03T19:19:19.536Z,100381.81
2023-02-03T19:21:45.909Z,100397.50
2023-02-03T19:24:12.285Z,100396.66
2023-02-03T19:26:38.627Z,100400.16
2023-02-03T19:29:04.948Z,100399.81
2023-02-03T19:31:31.444Z,100393.75
2023-02-03T19:33:58.888Z,100386.56
2023-02-03T19:36:25.369Z,100386.44
2023-02-03T19:38:51.677Z,100380.41
2023-02-03T19:41:18.007Z,100379.87
2023-02-03T19:43:44.753Z,100381.34
2023-02-03T19:46:11.714Z,100395.91
2023-02-03T19:48:38.589Z,100398.47
2023-02-03T19:51:04.946Z,100400.16
2023-02-03T19:53:31.354Z,100397.59
2023-02-03T19:55:57.690Z,100401.94
2023-02-03T19:58:24.220Z,100402.56
2023-02-03T20:00:50.560Z,100420.44
2023-02-03T20:03:20.058Z,100401.06
2023-02-03T20:05:46.763Z,100422.41
2023-02-03T20:08:14.964Z,100422.09
2023-02-03T20:10:41.909Z,100415.53
2023-02-03T20:13:10.180Z,100417.19
2023-02-03T20:15:36.508Z,100428.75
2023-02-03T20:18:03.140Z,100429.69
2023-02-03T20:20:29.715Z,100408.16
2023-02-03T20:22:56.152Z,100415.94
2023-02-03T20:25:22.537Z,100424.78
2023-02-03T20:27:48.907Z,100426.69
2023-02-03T20:30:15.277Z,100428.88
2023-02-03T20:32:41.592Z,100433.91
2023-02-03T20:35:07.968Z,100428.66
2023-02-03T20:37:36.189Z,100422.38
2023-02-03T20:40:02.939Z,100419.31
2023-02-03T20:42:29.237Z,100429.50
2023-02-03T20:44:55.570Z,100421.34
2023-02-03T20:47:22.994Z,100427.50
2023-02-03T20:49:49.766Z,100438.06
2023-02-03T20:52:16.209Z,100445.59
2023-02-03T20:54:42.688Z,100423.06
2023-02-03T20:57:08.998Z,100436.06
2023-02-03T20:59:36.150Z,100438.84
2023-02-03T21:02:09.696Z,100421.19
2023-02-03T21:04:54.873Z,100428.16
2023-02-03T21:07:23.003Z,100441.81
2023-02-03T21:09:53.173Z,100430.94
2023-02-03T21:12:19.550Z,100436.34
2023-02-03T21:14:45.952Z,100445.78
2023-02-03T21:17:12.270Z,100456.63
2023-02-03T21:19:38.633Z,100448.97
2023-02-03T21:22:04.969Z,100456.53
2023-02-03T21:24:31.317Z,100453.53
2023-02-03T21:26:57.693Z,100453.53
2023-02-03T21:29:24.046Z,100469.50
2023-02-03T21:31:50.389Z,100458.75
2023-02-03T21:34:16.735Z,100467.06
2023-02-03T21:36:43.063Z,100459.56
2023-02-03T21:39:09.383Z,100470.78
2023-02-03T21:41:35.768Z,100453.41
2023-02-03T21:44:02.140Z,100458.31
2023-02-03T21:46:28.561Z,100468.97
2023-02-03T21:48:54.946Z,100467.75
2023-02-03T21:51:22.567Z,100484.16
2023-02-03T21:53:49.005Z,100473.81
2023-02-03T21:56:15.342Z,100477.63
2023-02-03T21:58:41.642Z,100486.44
2023-02-03T22:01:08.102Z,100501.19
2023-02-03T22:03:35.514Z,100502.81
2023-02-03T22:06:01.821Z,100500.69
2023-02-03T22:08:28.138Z,100493.28
2023-02-03T22:10:54.463Z,100506.72
2023-02-03T22:13:20.798Z,100517.81
2023-02-03T22:15:48.948Z,100512.84
2023-02-03T22:18:15.796Z,100519.97
2023-02-03T22:20:42.194Z,100532.47
2023-02-03T22:23:09.141Z,100527.75
2023-02-03T22:25:35.477Z,100540.28
2023-02-03T22:28:01.869Z,100526.81
2023-02-03T22:30:28.462Z,100526.72
2023-02-03T22:32:55.038Z,100533.53
2023-02-03T22:35:21.385Z,100530.28
2023-02-03T22:37:47.787Z,100531.38
2023-02-03T22:40:14.184Z,100536.91
2023-02-03T22:42:40.590Z,100543.88
2023-02-03T22:45:07.278Z,100540.06
2023-02-03T22:47:33.860Z,100536.47
2023-02-03T22:50:00.235Z,100542.59
2023-02-03T22:52:26.573Z,100547.53
2023-02-03T22:54:52.944Z,100536.22
2023-02-03T22:57:19.302Z,100543.19
2023-02-03T22:59:45.655Z,100550.13
2023-02-03T23:02:12.018Z,100546.78
2023-02-03T23:04:38.447Z,100555.66
2023-02-03T23:07:04.796Z,100557.31
2023-02-03T23:09:31.222Z,100559.88
2023-02-03T23:11:57.640Z,100555.97
2023-02-03T23:14:23.941Z,100567.13
2023-02-03T23:16:50.425Z,100556.06
2023-02-03T23:19:16.733Z,100571.44
2023-02-03T23:21:43.140Z,100573.38
2023-02-03T23:24:09.445Z,100579.81
2023-02-03T23:26:36.888Z,100574.53
2023-02-03T23:29:03.201Z,100580.06
2023-02-03T23:31:29.944Z,100567.13
2023-02-03T23:34:15.232Z,100581.16
2023-02-03T23:36:41.554Z,100583.41
2023-02-03T23:39:07.891Z,100570.69
2023-02-03T23:41:34.206Z,100569.88
2023-02-03T23:44:01.030Z,100590.06
2023-02-03T23:46:27.401Z,100592.22
2023-02-03T23:48:53.744Z,100596.41
2023-02-03T23:51:20.049Z,100609.09
2023-02-03T23:53:46.370Z,100613.44
2023-02-03T23:56:13.920Z,100622.44
2023-02-03T23:58:40.273Z,100660.91
